TAI323 MPTO-MROC
Flight info
| Callsign | TAI323 |
|---|---|
| Flight time | 0h 51m |
| Altitude | 34000 |
| Route | PUDOS DCT ISEBA CUARE4I |
| Aircraft | A320/M-SDE3FGHIRWY/LB1 |
Departure
| Time | 2026-05-04 20:30 |
|---|---|
| Airport | Tocumen International Airport (MPTO) |
Arrival
| Time | 2026-05-04 21:22 |
|---|---|
| Airport | Juan Santamaría International Airport (MROC) |
| Time | Latitude | Longitude | Altitude | Speed | Heading |
|---|---|---|---|---|---|
| 2026-05-04 20:11 | 9.07001 | -79.38653 | 30 ft | 0 kts | 121° |
| 2026-05-04 20:26 | 9.07009 | -79.38665 | 31 ft | 4 kts | 119° |
| 2026-05-04 20:26 | 9.07018 | -79.38688 | 31 ft | 4 kts | 76° |
| 2026-05-04 20:26 | 9.07013 | -79.38697 | 31 ft | 0 kts | 31° |
| 2026-05-04 20:28 | 9.07018 | -79.38694 | 31 ft | 4 kts | 31° |
| 2026-05-04 20:28 | 9.07075 | -79.38661 | 32 ft | 14 kts | 27° |
| 2026-05-04 20:29 | 9.07155 | -79.38619 | 33 ft | 12 kts | 27° |
| 2026-05-04 20:29 | 9.07221 | -79.38597 | 34 ft | 9 kts | 345° |
| 2026-05-04 20:29 | 9.07270 | -79.38658 | 42 ft | 13 kts | 290° |
| 2026-05-04 20:29 | 9.07324 | -79.38700 | 47 ft | 11 kts | 10° |
| 2026-05-04 20:30 | 9.07553 | -79.38567 | 49 ft | 78 kts | 30° |
| 2026-05-04 20:30 | 9.08237 | -79.38156 | 45 ft | 148 kts | 31° |
| 2026-05-04 20:30 | 9.09229 | -79.37554 | 416 ft | 169 kts | 30° |
| 2026-05-04 20:30 | 9.10231 | -79.36953 | 1179 ft | 170 kts | 29° |
| 2026-05-04 20:31 | 9.11250 | -79.36345 | 2019 ft | 167 kts | 30° |
| 2026-05-04 20:31 | 9.12276 | -79.35732 | 2390 ft | 184 kts | 30° |
| 2026-05-04 20:31 | 9.13447 | -79.35032 | 2646 ft | 208 kts | 30° |
| 2026-05-04 20:31 | 9.14779 | -79.34280 | 2971 ft | 231 kts | 21° |
| 2026-05-04 20:32 | 9.16436 | -79.34097 | 3326 ft | 254 kts | 349° |
| 2026-05-04 20:32 | 9.18012 | -79.34964 | 3979 ft | 269 kts | 313° |
| 2026-05-04 20:32 | 9.18849 | -79.36652 | 4743 ft | 276 kts | 279° |
| 2026-05-04 20:32 | 9.18938 | -79.38613 | 5534 ft | 283 kts | 269° |
| 2026-05-04 20:33 | 9.18828 | -79.40618 | 6337 ft | 288 kts | 266° |
| 2026-05-04 20:33 | 9.18647 | -79.42655 | 7045 ft | 293 kts | 265° |
| 2026-05-04 20:33 | 9.18455 | -79.44717 | 7841 ft | 295 kts | 265° |
| 2026-05-04 20:33 | 9.18277 | -79.46798 | 8597 ft | 299 kts | 265° |
| 2026-05-04 20:34 | 9.18118 | -79.48908 | 9326 ft | 303 kts | 266° |
| 2026-05-04 20:34 | 9.17972 | -79.51048 | 10041 ft | 306 kts | 266° |
| 2026-05-04 20:34 | 9.17835 | -79.53253 | 10406 ft | 325 kts | 266° |
| 2026-05-04 20:34 | 9.17694 | -79.55611 | 10564 ft | 347 kts | 266° |
| 2026-05-04 20:35 | 9.17545 | -79.58125 | 10754 ft | 367 kts | 266° |
| 2026-05-04 20:35 | 9.17389 | -79.60736 | 11226 ft | 375 kts | 266° |
| 2026-05-04 20:35 | 9.17231 | -79.63393 | 11887 ft | 381 kts | 267° |
| 2026-05-04 20:35 | 9.17073 | -79.66081 | 12557 ft | 384 kts | 267° |
| 2026-05-04 20:36 | 9.16913 | -79.68753 | 13141 ft | 388 kts | 267° |
| 2026-05-04 20:36 | 9.16748 | -79.71488 | 13723 ft | 391 kts | 267° |
| 2026-05-04 20:36 | 9.16577 | -79.74246 | 14235 ft | 394 kts | 266° |
| 2026-05-04 20:36 | 9.16403 | -79.77025 | 14744 ft | 397 kts | 266° |
| 2026-05-04 20:37 | 9.16227 | -79.79827 | 15261 ft | 400 kts | 266° |
| 2026-05-04 20:37 | 9.16051 | -79.82653 | 15709 ft | 405 kts | 266° |
| 2026-05-04 20:37 | 9.15878 | -79.85506 | 16228 ft | 408 kts | 266° |
| 2026-05-04 20:37 | 9.15705 | -79.88372 | 16770 ft | 409 kts | 266° |
| 2026-05-04 20:38 | 9.15531 | -79.91261 | 17260 ft | 413 kts | 266° |
| 2026-05-04 20:38 | 9.15355 | -79.94169 | 17764 ft | 416 kts | 266° |
| 2026-05-04 20:38 | 9.15173 | -79.97107 | 18252 ft | 419 kts | 266° |
| 2026-05-04 20:38 | 9.14988 | -80.00060 | 18732 ft | 422 kts | 266° |
| 2026-05-04 20:39 | 9.14803 | -80.03026 | 19254 ft | 423 kts | 266° |
| 2026-05-04 20:39 | 9.14622 | -80.06006 | 19711 ft | 426 kts | 266° |
| 2026-05-04 20:39 | 9.14439 | -80.08999 | 20171 ft | 427 kts | 266° |
| 2026-05-04 20:39 | 9.14254 | -80.12002 | 20650 ft | 428 kts | 266° |
| 2026-05-04 20:40 | 9.14068 | -80.15008 | 21111 ft | 429 kts | 266° |
| 2026-05-04 20:40 | 9.13879 | -80.18029 | 21545 ft | 430 kts | 267° |
| 2026-05-04 20:40 | 9.13753 | -80.20030 | 21834 ft | 431 kts | 267° |
| 2026-05-04 20:40 | 9.13562 | -80.23063 | 22263 ft | 432 kts | 267° |
| 2026-05-04 20:41 | 9.13373 | -80.26104 | 22673 ft | 434 kts | 267° |
| 2026-05-04 20:41 | 9.13183 | -80.29155 | 23086 ft | 435 kts | 267° |
| 2026-05-04 20:41 | 9.12993 | -80.32215 | 23482 ft | 436 kts | 267° |
| 2026-05-04 20:41 | 9.12801 | -80.35277 | 23791 ft | 438 kts | 267° |
| 2026-05-04 20:42 | 9.12608 | -80.38359 | 24070 ft | 440 kts | 267° |
| 2026-05-04 20:42 | 9.12415 | -80.41458 | 24353 ft | 442 kts | 267° |
| 2026-05-04 20:42 | 9.12222 | -80.44568 | 24642 ft | 444 kts | 267° |
| 2026-05-04 20:42 | 9.12028 | -80.47689 | 24895 ft | 446 kts | 267° |
| 2026-05-04 20:43 | 9.11830 | -80.50828 | 25146 ft | 448 kts | 267° |
| 2026-05-04 20:43 | 9.11632 | -80.53981 | 25398 ft | 450 kts | 267° |
| 2026-05-04 20:43 | 9.11431 | -80.57148 | 25672 ft | 452 kts | 267° |
| 2026-05-04 20:43 | 9.11229 | -80.60326 | 25924 ft | 454 kts | 267° |
| 2026-05-04 20:44 | 9.11025 | -80.63518 | 26159 ft | 456 kts | 267° |
| 2026-05-04 20:44 | 9.10823 | -80.66723 | 26408 ft | 457 kts | 267° |
| 2026-05-04 20:44 | 9.10619 | -80.69942 | 26657 ft | 459 kts | 267° |
| 2026-05-04 20:44 | 9.10415 | -80.73171 | 26891 ft | 461 kts | 267° |
| 2026-05-04 20:45 | 9.10210 | -80.76412 | 27111 ft | 463 kts | 267° |
| 2026-05-04 20:45 | 9.10003 | -80.79667 | 27336 ft | 464 kts | 267° |
| 2026-05-04 20:45 | 9.09796 | -80.82934 | 27564 ft | 466 kts | 267° |
| 2026-05-04 20:45 | 9.09588 | -80.86212 | 27771 ft | 468 kts | 267° |
| 2026-05-04 20:46 | 9.09376 | -80.89503 | 27976 ft | 469 kts | 267° |
| 2026-05-04 20:46 | 9.09162 | -80.92805 | 28181 ft | 471 kts | 267° |
| 2026-05-04 20:46 | 9.08947 | -80.96112 | 28398 ft | 472 kts | 267° |
| 2026-05-04 20:46 | 9.08733 | -80.99428 | 28600 ft | 473 kts | 267° |
| 2026-05-04 20:47 | 9.08564 | -81.02759 | 28774 ft | 474 kts | 271° |
| 2026-05-04 20:47 | 9.08812 | -81.06084 | 28953 ft | 474 kts | 280° |
| 2026-05-04 20:47 | 9.09537 | -81.09333 | 29189 ft | 474 kts | 285° |
| 2026-05-04 20:47 | 9.10378 | -81.12553 | 29443 ft | 473 kts | 285° |
| 2026-05-04 20:48 | 9.11205 | -81.15775 | 29697 ft | 473 kts | 285° |
| 2026-05-04 20:48 | 9.12020 | -81.18997 | 29939 ft | 473 kts | 285° |
| 2026-05-04 20:48 | 9.12828 | -81.22220 | 30169 ft | 472 kts | 285° |
| 2026-05-04 20:48 | 9.13634 | -81.25438 | 30383 ft | 472 kts | 285° |
| 2026-05-04 20:49 | 9.14442 | -81.28658 | 30594 ft | 472 kts | 285° |
| 2026-05-04 20:49 | 9.15251 | -81.31874 | 30793 ft | 472 kts | 285° |
| 2026-05-04 20:49 | 9.16066 | -81.35098 | 30996 ft | 473 kts | 285° |
| 2026-05-04 20:49 | 9.16883 | -81.38320 | 31204 ft | 473 kts | 285° |
| 2026-05-04 20:50 | 9.17699 | -81.41539 | 31424 ft | 473 kts | 285° |
| 2026-05-04 20:50 | 9.18503 | -81.44724 | 31638 ft | 473 kts | 285° |
| 2026-05-04 20:50 | 9.19328 | -81.47990 | 31864 ft | 473 kts | 285° |
| 2026-05-04 20:50 | 9.20132 | -81.51172 | 32073 ft | 473 kts | 285° |
| 2026-05-04 20:51 | 9.20951 | -81.54400 | 32287 ft | 474 kts | 285° |
| 2026-05-04 20:51 | 9.21770 | -81.57629 | 32522 ft | 473 kts | 285° |
| 2026-05-04 20:51 | 9.22585 | -81.60857 | 32746 ft | 473 kts | 284° |
| 2026-05-04 20:51 | 9.23397 | -81.64081 | 32993 ft | 473 kts | 284° |
| 2026-05-04 20:52 | 9.24206 | -81.67307 | 33230 ft | 472 kts | 284° |
| 2026-05-04 20:52 | 9.25011 | -81.70525 | 33515 ft | 471 kts | 284° |
| 2026-05-04 20:52 | 9.25816 | -81.73733 | 33778 ft | 470 kts | 284° |
| 2026-05-04 20:52 | 9.26624 | -81.76944 | 33877 ft | 471 kts | 284° |
| 2026-05-04 20:53 | 9.28244 | -81.83362 | 33890 ft | 470 kts | 284° |
| 2026-05-04 20:53 | 9.29856 | -81.89775 | 33891 ft | 470 kts | 284° |
| 2026-05-04 20:54 | 9.31467 | -81.96191 | 33900 ft | 471 kts | 284° |
| 2026-05-04 20:54 | 9.33086 | -82.02615 | 33907 ft | 471 kts | 284° |
| 2026-05-04 20:55 | 9.34698 | -82.09032 | 33911 ft | 470 kts | 284° |
| 2026-05-04 20:55 | 9.36302 | -82.15450 | 33917 ft | 470 kts | 284° |
| 2026-05-04 20:56 | 9.37904 | -82.21867 | 33913 ft | 470 kts | 284° |
| 2026-05-04 20:56 | 9.39509 | -82.28273 | 33931 ft | 469 kts | 284° |
| 2026-05-04 20:57 | 9.41111 | -82.34664 | 33932 ft | 468 kts | 284° |
| 2026-05-04 20:57 | 9.42707 | -82.41044 | 33931 ft | 467 kts | 284° |
| 2026-05-04 20:58 | 9.44283 | -82.47377 | 33924 ft | 467 kts | 284° |
| 2026-05-04 20:58 | 9.45864 | -82.53751 | 33907 ft | 466 kts | 284° |
| 2026-05-04 20:59 | 9.47455 | -82.60116 | 33916 ft | 466 kts | 284° |
| 2026-05-04 20:59 | 9.49047 | -82.66489 | 33914 ft | 466 kts | 284° |
| 2026-05-04 21:00 | 9.50635 | -82.72854 | 33928 ft | 466 kts | 284° |
| 2026-05-04 21:00 | 9.52216 | -82.79224 | 33928 ft | 466 kts | 284° |
| 2026-05-04 21:01 | 9.53798 | -82.85600 | 33915 ft | 467 kts | 284° |
| 2026-05-04 21:01 | 9.55403 | -82.91989 | 33928 ft | 468 kts | 284° |
| 2026-05-04 21:02 | 9.57045 | -82.98378 | 33928 ft | 469 kts | 284° |
| 2026-05-04 21:02 | 9.58687 | -83.04772 | 33954 ft | 469 kts | 284° |
| 2026-05-04 21:03 | 9.60326 | -83.11166 | 33955 ft | 469 kts | 284° |
| 2026-05-04 21:03 | 9.62406 | -83.17429 | 33951 ft | 470 kts | 289° |
| 2026-05-04 21:04 | 9.64628 | -83.23656 | 33951 ft | 470 kts | 289° |
| 2026-05-04 21:04 | 9.66839 | -83.29895 | 33415 ft | 471 kts | 289° |
| 2026-05-04 21:05 | 9.67958 | -83.33050 | 32145 ft | 480 kts | 290° |
| 2026-05-04 21:05 | 9.69095 | -83.36256 | 30984 ft | 485 kts | 290° |
| 2026-05-04 21:05 | 9.70241 | -83.39486 | 29863 ft | 488 kts | 290° |
| 2026-05-04 21:05 | 9.71387 | -83.42724 | 28750 ft | 487 kts | 290° |
| 2026-05-04 21:06 | 9.72524 | -83.45941 | 27764 ft | 484 kts | 290° |
| 2026-05-04 21:06 | 9.73659 | -83.49137 | 26908 ft | 479 kts | 290° |
| 2026-05-04 21:06 | 9.74734 | -83.52297 | 26187 ft | 469 kts | 287° |
| 2026-05-04 21:06 | 9.75345 | -83.55489 | 25001 ft | 459 kts | 273° |
| 2026-05-04 21:07 | 9.75200 | -83.58697 | 23811 ft | 453 kts | 265° |
| 2026-05-04 21:07 | 9.74902 | -83.61858 | 22484 ft | 448 kts | 265° |
| 2026-05-04 21:07 | 9.74612 | -83.64977 | 21255 ft | 442 kts | 265° |
| 2026-05-04 21:07 | 9.74333 | -83.68056 | 20090 ft | 436 kts | 265° |
| 2026-05-04 21:08 | 9.74061 | -83.71099 | 18982 ft | 431 kts | 265° |
| 2026-05-04 21:08 | 9.73798 | -83.74082 | 18431 ft | 414 kts | 265° |
| 2026-05-04 21:08 | 9.73451 | -83.76900 | 17714 ft | 400 kts | 255° |
| 2026-05-04 21:08 | 9.72364 | -83.79464 | 16741 ft | 395 kts | 236° |
| 2026-05-04 21:09 | 9.70526 | -83.81486 | 15838 ft | 388 kts | 216° |
| 2026-05-04 21:09 | 9.68175 | -83.82742 | 14950 ft | 380 kts | 195° |
| 2026-05-04 21:09 | 9.65602 | -83.83099 | 14084 ft | 371 kts | 174° |
| 2026-05-04 21:09 | 9.63131 | -83.82532 | 13171 ft | 362 kts | 154° |
| 2026-05-04 21:10 | 9.61081 | -83.81121 | 12351 ft | 357 kts | 132° |
| 2026-05-04 21:10 | 9.59756 | -83.79054 | 12069 ft | 357 kts | 110° |
| 2026-05-04 21:10 | 9.59304 | -83.76577 | 12131 ft | 355 kts | 88° |
| 2026-05-04 21:10 | 9.59812 | -83.74163 | 12552 ft | 360 kts | 67° |
| 2026-05-04 21:11 | 9.61167 | -83.72019 | 13192 ft | 366 kts | 48° |
| 2026-05-04 21:11 | 9.63119 | -83.70457 | 13796 ft | 349 kts | 30° |
| 2026-05-04 21:11 | 9.65329 | -83.69647 | 13932 ft | 331 kts | 11° |
| 2026-05-04 21:11 | 9.67586 | -83.69597 | 13873 ft | 323 kts | 353° |
| 2026-05-04 21:12 | 9.69704 | -83.70286 | 13671 ft | 319 kts | 334° |
| 2026-05-04 21:12 | 9.71469 | -83.71630 | 13330 ft | 319 kts | 313° |
| 2026-05-04 21:12 | 9.72702 | -83.73482 | 13000 ft | 318 kts | 294° |
| 2026-05-04 21:12 | 9.73291 | -83.75632 | 12648 ft | 317 kts | 275° |
| 2026-05-04 21:13 | 9.73260 | -83.77855 | 12337 ft | 315 kts | 266° |
| 2026-05-04 21:13 | 9.73127 | -83.80081 | 12196 ft | 317 kts | 266° |
| 2026-05-04 21:13 | 9.73088 | -83.82308 | 12076 ft | 317 kts | 276° |
| 2026-05-04 21:13 | 9.73591 | -83.84482 | 11967 ft | 318 kts | 293° |
| 2026-05-04 21:14 | 9.74665 | -83.86447 | 11610 ft | 323 kts | 310° |
| 2026-05-04 21:14 | 9.76212 | -83.88072 | 11404 ft | 317 kts | 318° |
| 2026-05-04 21:14 | 9.77778 | -83.89605 | 11192 ft | 310 kts | 317° |
| 2026-05-04 21:14 | 9.79309 | -83.91129 | 10834 ft | 309 kts | 317° |
| 2026-05-04 21:15 | 9.80833 | -83.92662 | 10427 ft | 310 kts | 316° |
| 2026-05-04 21:15 | 9.82390 | -83.94230 | 9824 ft | 319 kts | 317° |
| 2026-05-04 21:15 | 9.83963 | -83.95812 | 9404 ft | 317 kts | 317° |
| 2026-05-04 21:15 | 9.85498 | -83.97356 | 9080 ft | 303 kts | 317° |
| 2026-05-04 21:16 | 9.86955 | -83.98821 | 8755 ft | 288 kts | 316° |
| 2026-05-04 21:16 | 9.88346 | -84.00222 | 8443 ft | 276 kts | 318° |
| 2026-05-04 21:16 | 9.89666 | -84.01552 | 8138 ft | 257 kts | 316° |
| 2026-05-04 21:16 | 9.90718 | -84.02941 | 7904 ft | 242 kts | 304° |
| 2026-05-04 21:17 | 9.91588 | -84.04367 | 7435 ft | 233 kts | 303° |
| 2026-05-04 21:17 | 9.92419 | -84.05731 | 7047 ft | 223 kts | 303° |
| 2026-05-04 21:17 | 9.93213 | -84.07033 | 6728 ft | 210 kts | 303° |
| 2026-05-04 21:17 | 9.93959 | -84.08255 | 6357 ft | 198 kts | 303° |
| 2026-05-04 21:18 | 9.94814 | -84.09253 | 6085 ft | 180 kts | 323° |
| 2026-05-04 21:18 | 9.95853 | -84.09862 | 5871 ft | 166 kts | 342° |
| 2026-05-04 21:18 | 9.96950 | -84.10106 | 5669 ft | 158 kts | 359° |
| 2026-05-04 21:18 | 9.98038 | -84.10078 | 5475 ft | 156 kts | 359° |
| 2026-05-04 21:19 | 9.99113 | -84.10253 | 5292 ft | 156 kts | 342° |
| 2026-05-04 21:19 | 10.00093 | -84.10738 | 5079 ft | 158 kts | 324° |
| 2026-05-04 21:19 | 10.00896 | -84.11491 | 4872 ft | 157 kts | 307° |
| 2026-05-04 21:19 | 10.01446 | -84.12427 | 4649 ft | 153 kts | 291° |
| 2026-05-04 21:20 | 10.01714 | -84.13465 | 4421 ft | 153 kts | 276° |
| 2026-05-04 21:20 | 10.01684 | -84.14537 | 4192 ft | 154 kts | 261° |
| 2026-05-04 21:20 | 10.01371 | -84.15583 | 3974 ft | 157 kts | 251° |
| 2026-05-04 21:20 | 10.00985 | -84.16615 | 3761 ft | 156 kts | 250° |
| 2026-05-04 21:21 | 10.00599 | -84.17650 | 3551 ft | 156 kts | 251° |
| 2026-05-04 21:21 | 10.00215 | -84.18662 | 3358 ft | 154 kts | 250° |
| 2026-05-04 21:21 | 9.99847 | -84.19664 | 3136 ft | 150 kts | 252° |
| 2026-05-04 21:21 | 9.99483 | -84.20632 | 3016 ft | 138 kts | 252° |
| 2026-05-04 21:22 | 9.99216 | -84.21357 | 2981 ft | 69 kts | 249° |
| 2026-05-04 21:22 | 9.99114 | -84.21629 | 2972 ft | 20 kts | 249° |
| 2026-05-04 21:22 | 9.99128 | -84.21713 | 2969 ft | 11 kts | 348° |
| 2026-05-04 21:22 | 9.99191 | -84.21678 | 2971 ft | 11 kts | 62° |
| 2026-05-04 21:23 | 9.99222 | -84.21592 | 2975 ft | 16 kts | 70° |
| 2026-05-04 21:23 | 9.99262 | -84.21486 | 2978 ft | 14 kts | 69° |
| 2026-05-04 21:23 | 9.99290 | -84.21412 | 2981 ft | 9 kts | 70° |
| 2026-05-04 21:23 | 9.99322 | -84.21326 | 2984 ft | 20 kts | 70° |
| 2026-05-04 21:24 | 9.99381 | -84.21167 | 2991 ft | 24 kts | 68° |
| 2026-05-04 21:24 | 9.99438 | -84.21016 | 2997 ft | 21 kts | 69° |
| 2026-05-04 21:24 | 9.99484 | -84.20893 | 3007 ft | 16 kts | 69° |
| 2026-05-04 21:24 | 9.99518 | -84.20805 | 3007 ft | 11 kts | 69° |
| 2026-05-04 21:25 | 9.99539 | -84.20747 | 3013 ft | 7 kts | 70° |
| 2026-05-04 21:25 | 9.99550 | -84.20716 | 3011 ft | 3 kts | 70° |
| 2026-05-04 21:25 | 9.99564 | -84.20679 | 3012 ft | 10 kts | 69° |
| 2026-05-04 21:25 | 9.99592 | -84.20602 | 3015 ft | 10 kts | 69° |
| 2026-05-04 21:26 | 9.99612 | -84.20551 | 3017 ft | 6 kts | 69° |
| 2026-05-04 21:26 | 9.99625 | -84.20516 | 3023 ft | 6 kts | 69° |
| 2026-05-04 21:26 | 9.99643 | -84.20469 | 3024 ft | 8 kts | 69° |
| 2026-05-04 21:26 | 9.99673 | -84.20438 | 3024 ft | 6 kts | 350° |
| 2026-05-04 21:27 | 9.99700 | -84.20448 | 3021 ft | 1 kts | 340° |
| 2026-05-04 21:27 | 9.99710 | -84.20452 | 3021 ft | 0 kts | 339° |